Time;durP1;ratioP1;P1;durP2;ratioP2;P2;SDS_P1;SDS_P2;PMS_P1;PMS_P2;Temp;Humidity;BMP_temperature;BMP_pressure;BME280_temperature;BME280_humidity;BME280_pressure;Samples;Min_cycle;Max_cycle;Signal;HPM_P1;HPM_P2
2022/10/10 00:01:32;;;;;;;2.50;1.67;;;;;;;;;;5089018;28;20029;-77
2022/10/10 00:03:58;;;;;;;4.60;2.33;;;;;;;;;;5055343;28;20020;-78
2022/10/10 00:06:24;;;;;;;2.80;1.67;;;;;;;;;;5055329;28;20028;-77
2022/10/10 00:08:50;;;;;;;3.63;2.10;;;;;;;;;;5056031;28;20051;-78
2022/10/10 00:11:17;;;;;;;4.13;1.73;;;;;;;;;;5055714;28;20430;-77
2022/10/10 00:13:43;;;;;;;3.20;1.20;;;;;;;;;;5073745;28;20032;-78
2022/10/10 00:16:10;;;;;;;2.90;2.10;;;;;;;;;;5065973;28;20338;-77
2022/10/10 00:18:37;;;;;;;3.73;1.63;;;;;;;;;;5055294;28;20048;-77
2022/10/10 00:21:05;;;;;;;5.60;1.60;;;;;;;;;;5055914;28;20458;-78
2022/10/10 00:23:31;;;;;;;3.37;1.80;;;;;;;;;;5054939;28;20060;-77
2022/10/10 00:25:57;;;;;;;2.60;1.90;;;;;;;;;;5068720;28;20346;-78
2022/10/10 00:28:24;;;;;;;2.70;1.53;;;;;;;;;;5055896;28;20025;-78
2022/10/10 00:30:50;;;;;;;4.57;1.43;;;;;;;;;;5068743;28;20040;-78
2022/10/10 00:33:18;;;;;;;8.57;2.83;;;;;;;;;;5054657;28;20029;-76
2022/10/10 00:35:44;;;;;;;2.27;1.47;;;;;;;;;;5088406;28;20346;-78
2022/10/10 00:38:13;;;;;;;5.60;1.60;;;;;;;;;;5054647;28;20036;-77
2022/10/10 00:40:51;;;;;;;3.30;1.80;;;;;;;;;;5053544;28;20116;-78
2022/10/10 00:43:18;;;;;;;4.33;1.70;;;;;;;;;;5058673;28;20024;-76
2022/10/10 00:45:47;;;;;;;7.60;2.07;;;;;;;;;;5059490;28;20083;-78
2022/10/10 00:48:15;;;;;;;2.33;1.60;;;;;;;;;;5052969;28;20029;-78
2022/10/10 00:50:43;;;;;;;3.00;1.80;;;;;;;;;;5057639;28;20390;-77
2022/10/10 00:53:11;;;;;;;3.87;1.57;;;;;;;;;;5054471;28;20029;-77
2022/10/10 00:55:37;;;;;;;6.50;2.10;;;;;;;;;;5055326;28;20029;-77
2022/10/10 00:58:04;;;;;;;3.87;1.93;;;;;;;;;;5054386;28;20029;-79
2022/10/10 01:00:30;;;;;;;3.60;1.90;;;;;;;;;;5055696;28;20021;-77
2022/10/10 01:02:57;;;;;;;2.90;1.90;;;;;;;;;;5070783;28;20032;-77
2022/10/10 01:05:23;;;;;;;4.43;2.40;;;;;;;;;;5065869;28;20434;-78
2022/10/10 01:07:49;;;;;;;4.60;2.50;;;;;;;;;;5055196;28;20442;-77
2022/10/10 01:10:19;;;;;;;3.13;1.90;;;;;;;;;;5054033;28;20468;-78
2022/10/10 01:13:01;;;;;;;3.30;2.00;;;;;;;;;;5054319;28;20125;-78
2022/10/10 01:15:32;;;;;;;4.33;2.23;;;;;;;;;;5038161;28;20033;-78
2022/10/10 01:18:14;;;;;;;3.17;1.80;;;;;;;;;;5048372;28;20040;-77
2022/10/10 01:20:46;;;;;;;2.33;1.30;;;;;;;;;;5039927;28;20053;-77
2022/10/10 01:23:12;;;;;;;2.38;1.63;;;;;;;;;;5070023;28;20346;-78
2022/10/10 01:25:53;;;;;;;2.87;1.57;;;;;;;;;;5069913;28;20067;-77
2022/10/10 01:28:34;;;;;;;6.87;2.03;;;;;;;;;;5056137;28;20032;-78
2022/10/10 01:31:00;;;;;;;2.10;1.77;;;;;;;;;;5053988;28;20031;-78
2022/10/10 01:33:38;;;;;;;2.87;1.80;;;;;;;;;;5063918;28;20033;-78
2022/10/10 01:36:04;;;;;;;4.73;1.97;;;;;;;;;;5048980;28;20422;-78
2022/10/10 01:38:30;;;;;;;4.93;1.70;;;;;;;;;;5042997;28;20044;-78
2022/10/10 01:41:00;;;;;;;4.37;1.60;;;;;;;;;;5043034;28;20056;-77
2022/10/10 01:43:26;;;;;;;5.90;1.50;;;;;;;;;;5043207;28;20025;-76
2022/10/10 01:45:53;;;;;;;4.70;2.00;;;;;;;;;;5044409;28;20166;-76
2022/10/10 01:48:22;;;;;;;2.77;1.63;;;;;;;;;;5043914;28;20350;-77
2022/10/10 01:50:48;;;;;;;6.03;1.80;;;;;;;;;;5044749;28;20106;-76
2022/10/10 01:53:23;;;;;;;3.87;1.60;;;;;;;;;;5045564;28;20539;-77
2022/10/10 01:55:49;;;;;;;6.07;2.00;;;;;;;;;;5047051;28;20112;-78
2022/10/10 01:58:18;;;;;;;4.10;1.87;;;;;;;;;;5046590;28;20035;-78
2022/10/10 02:00:59;;;;;;;3.40;1.70;;;;;;;;;;5045663;28;20025;-76
2022/10/10 02:03:36;;;;;;;2.40;1.70;;;;;;;;;;5046752;28;20033;-76
2022/10/10 02:06:09;;;;;;;3.83;1.57;;;;;;;;;;5046304;28;20025;-76
2022/10/10 02:08:35;;;;;;;;;;;;;;;;;;5046054;28;20116;-77
2022/10/10 02:11:06;;;;;;;1.97;1.40;;;;;;;;;;5046242;28;20444;-78
2022/10/10 02:13:44;;;;;;;3.33;1.87;;;;;;;;;;5063349;28;20116;-77
2022/10/10 02:16:15;;;;;;;3.13;1.93;;;;;;;;;;5047335;28;20059;-78
2022/10/10 02:18:44;;;;;;;4.03;1.90;;;;;;;;;;5044735;28;20460;-75
2022/10/10 02:21:13;;;;;;;2.40;1.53;;;;;;;;;;5045856;28;21663;-78
2022/10/10 02:23:41;;;;;;;2.90;1.73;;;;;;;;;;5047485;28;20119;-75
2022/10/10 02:26:10;;;;;;;3.13;2.03;;;;;;;;;;5047636;28;20115;-76
2022/10/10 02:28:41;;;;;;;2.17;1.53;;;;;;;;;;5045356;28;20082;-76
2022/10/10 02:31:10;;;;;;;5.10;1.83;;;;;;;;;;5046886;28;20433;-77
2022/10/10 02:33:42;;;;;;;3.33;1.80;;;;;;;;;;5044124;28;20131;-78
2022/10/10 02:36:08;;;;;;;2.58;1.80;;;;;;;;;;5046036;28;20120;-78
2022/10/10 02:38:34;;;;;;;2.67;1.70;;;;;;;;;;5046654;28;20033;-76
2022/10/10 02:41:02;;;;;;;2.40;1.63;;;;;;;;;;5046608;28;20030;-76
2022/10/10 02:43:30;;;;;;;5.30;1.80;;;;;;;;;;5044586;28;20025;-78
2022/10/10 02:45:56;;;;;;;2.77;2.00;;;;;;;;;;5049457;28;20458;-77
2022/10/10 02:48:22;;;;;;;4.77;1.53;;;;;;;;;;5045183;28;20041;-77
2022/10/10 02:50:48;;;;;;;3.80;1.90;;;;;;;;;;5047075;28;20168;-77
2022/10/10 02:53:14;;;;;;;2.97;2.20;;;;;;;;;;5044199;28;20029;-77
2022/10/10 02:55:40;;;;;;;6.90;2.07;;;;;;;;;;5045239;28;20039;-77
2022/10/10 02:58:06;;;;;;;3.93;2.27;;;;;;;;;;5046123;28;20024;-77
2022/10/10 03:00:32;;;;;;;3.27;2.33;;;;;;;;;;5042768;28;20385;-77
2022/10/10 03:02:58;;;;;;;4.43;2.20;;;;;;;;;;5044834;28;20102;-76
2022/10/10 03:05:24;;;;;;;5.17;2.40;;;;;;;;;;5045086;28;20029;-78
2022/10/10 03:07:50;;;;;;;4.50;2.60;;;;;;;;;;5045834;28;20024;-76
2022/10/10 03:10:21;;;;;;;2.57;1.93;;;;;;;;;;5043373;28;20025;-76
2022/10/10 03:12:47;;;;;;;8.00;2.37;;;;;;;;;;5047498;28;20025;-78
2022/10/10 03:15:13;;;;;;;8.70;2.90;;;;;;;;;;5045630;28;20060;-78
2022/10/10 03:17:39;;;;;;;5.03;2.27;;;;;;;;;;5044032;28;20122;-78
2022/10/10 03:20:06;;;;;;;4.13;2.10;;;;;;;;;;5045661;28;20029;-76
2022/10/10 03:22:32;;;;;;;3.07;2.07;;;;;;;;;;5046228;28;20029;-77
2022/10/10 03:24:58;;;;;;;3.63;2.00;;;;;;;;;;5044290;28;20032;-77
2022/10/10 03:27:24;;;;;;;3.87;2.63;;;;;;;;;;5043994;28;20024;-78
2022/10/10 03:29:50;;;;;;;4.43;2.10;;;;;;;;;;5044572;28;20029;-77
2022/10/10 03:32:16;;;;;;;3.10;1.80;;;;;;;;;;5042802;28;20033;-78
2022/10/10 03:34:42;;;;;;;4.87;2.47;;;;;;;;;;5043365;28;20125;-77
2022/10/10 03:37:10;;;;;;;4.63;2.87;;;;;;;;;;5053023;28;20044;-77
2022/10/10 03:39:37;;;;;;;3.97;2.10;;;;;;;;;;5056508;28;20021;-78
2022/10/10 03:42:03;;;;;;;6.57;2.40;;;;;;;;;;5070971;28;20025;-77
2022/10/10 03:44:29;;;;;;;4.20;1.63;;;;;;;;;;5056213;28;20108;-78
2022/10/10 03:46:55;;;;;;;6.10;2.43;;;;;;;;;;5057127;28;20048;-77
2022/10/10 03:49:21;;;;;;;5.30;1.73;;;;;;;;;;5055713;28;20025;-78
2022/10/10 03:51:49;;;;;;;5.00;2.37;;;;;;;;;;5056785;28;20056;-77
2022/10/10 03:54:15;;;;;;;3.77;1.63;;;;;;;;;;5070739;28;20021;-78
2022/10/10 03:56:41;;;;;;;4.03;2.10;;;;;;;;;;5057547;28;20044;-78
2022/10/10 03:59:09;;;;;;;5.13;2.17;;;;;;;;;;5056365;28;20064;-78
2022/10/10 04:01:35;;;;;;;5.00;2.60;;;;;;;;;;5055522;28;20029;-77
2022/10/10 04:04:02;;;;;;;4.30;2.40;;;;;;;;;;5056495;28;20032;-78
2022/10/10 04:06:28;;;;;;;4.07;2.67;;;;;;;;;;5056486;28;20100;-77
2022/10/10 04:08:54;;;;;;;6.77;2.87;;;;;;;;;;5055881;28;20024;-78
2022/10/10 04:11:20;;;;;;;5.40;2.60;;;;;;;;;;5055392;28;20064;-78
2022/10/10 04:13:46;;;;;;;5.57;2.40;;;;;;;;;;5046935;28;20033;-78
2022/10/10 04:16:12;;;;;;;5.50;2.23;;;;;;;;;;5051126;28;20032;-77
2022/10/10 04:18:38;;;;;;;4.50;2.93;;;;;;;;;;5062507;28;20404;-78
2022/10/10 04:21:05;;;;;;;15.17;4.07;;;;;;;;;;5061956;28;20029;-77
2022/10/10 04:23:31;;;;;;;7.07;2.77;;;;;;;;;;5041626;28;20025;-78
2022/10/10 04:25:57;;;;;;;5.97;3.03;;;;;;;;;;5055232;28;20032;-78
2022/10/10 04:28:23;;;;;;;6.00;2.50;;;;;;;;;;5051656;28;20060;-77
2022/10/10 04:30:49;;;;;;;4.00;2.47;;;;;;;;;;5045428;28;20025;-77
2022/10/10 04:33:15;;;;;;;6.40;2.17;;;;;;;;;;5055860;28;20029;-78
2022/10/10 04:35:42;;;;;;;7.47;2.17;;;;;;;;;;5055022;28;20063;-78
2022/10/10 04:38:08;;;;;;;6.77;2.70;;;;;;;;;;5054529;28;20060;-78
2022/10/10 04:40:36;;;;;;;6.43;2.60;;;;;;;;;;5054949;28;20032;-78
2022/10/10 04:43:02;;;;;;;5.27;2.43;;;;;;;;;;5054735;28;20060;-78
2022/10/10 04:45:29;;;;;;;4.53;3.10;;;;;;;;;;5054339;28;20028;-78
2022/10/10 04:47:57;;;;;;;4.40;2.47;;;;;;;;;;5054754;28;20056;-77
2022/10/10 04:50:23;;;;;;;4.03;2.50;;;;;;;;;;5054764;28;20123;-77
2022/10/10 04:52:49;;;;;;;5.67;2.53;;;;;;;;;;5064200;28;20032;-77
2022/10/10 04:55:15;;;;;;;5.40;2.53;;;;;;;;;;5058843;28;20044;-78
2022/10/10 04:57:41;;;;;;;5.10;2.40;;;;;;;;;;5058137;28;20040;-78
2022/10/10 05:00:08;;;;;;;8.57;4.53;;;;;;;;;;5064670;28;20025;-78
2022/10/10 05:02:34;;;;;;;4.87;2.80;;;;;;;;;;5055493;28;20032;-77
2022/10/10 05:05:00;;;;;;;4.63;2.60;;;;;;;;;;5054855;28;20021;-77
2022/10/10 05:07:26;;;;;;;4.70;2.57;;;;;;;;;;5046265;28;20051;-78
2022/10/10 05:09:55;;;;;;;6.27;2.40;;;;;;;;;;5054056;28;20365;-78
2022/10/10 05:12:21;;;;;;;4.40;2.37;;;;;;;;;;5053974;28;20028;-78
2022/10/10 05:14:47;;;;;;;8.30;2.87;;;;;;;;;;5055174;28;20437;-78
2022/10/10 05:17:13;;;;;;;5.30;2.87;;;;;;;;;;5055118;28;20433;-77
2022/10/10 05:19:41;;;;;;;3.93;2.60;;;;;;;;;;5067999;28;20039;-77
2022/10/10 05:22:07;;;;;;;4.53;2.40;;;;;;;;;;5054608;28;20059;-77
2022/10/10 05:24:33;;;;;;;7.67;2.77;;;;;;;;;;5068857;28;20052;-78
2022/10/10 05:26:59;;;;;;;8.13;3.03;;;;;;;;;;5067406;28;20029;-78
2022/10/10 05:29:28;;;;;;;3.87;2.93;;;;;;;;;;5053771;28;20048;-77
2022/10/10 05:31:54;;;;;;;5.67;2.73;;;;;;;;;;5054656;28;20025;-77
2022/10/10 05:34:23;;;;;;;4.37;2.93;;;;;;;;;;5044278;28;20030;-77
2022/10/10 05:36:49;;;;;;;4.33;3.13;;;;;;;;;;5063643;28;20033;-77
2022/10/10 05:39:16;;;;;;;5.57;3.23;;;;;;;;;;5034961;28;20087;-78
2022/10/10 05:41:42;;;;;;;7.47;3.50;;;;;;;;;;5051006;28;20104;-78
2022/10/10 05:44:08;;;;;;;6.17;3.03;;;;;;;;;;5053877;28;20418;-77
2022/10/10 05:46:34;;;;;;;5.80;3.17;;;;;;;;;;5052394;28;20098;-77
2022/10/10 05:49:03;;;;;;;8.27;2.90;;;;;;;;;;5054794;28;20029;-78
2022/10/10 05:51:31;;;;;;;5.20;2.87;;;;;;;;;;5047809;28;20045;-77
2022/10/10 05:54:00;;;;;;;8.00;3.40;;;;;;;;;;5051836;28;20021;-77
2022/10/10 05:56:26;;;;;;;7.50;3.30;;;;;;;;;;5055608;28;20033;-78
2022/10/10 05:58:52;;;;;;;5.70;3.27;;;;;;;;;;5060956;28;20017;-78
2022/10/10 06:01:18;;;;;;;6.60;3.40;;;;;;;;;;5056673;28;20625;-77
2022/10/10 06:03:44;;;;;;;6.43;3.90;;;;;;;;;;5053962;28;20116;-78
2022/10/10 06:06:10;;;;;;;6.50;4.00;;;;;;;;;;5053932;28;20033;-78
2022/10/10 06:08:36;;;;;;;4.23;3.20;;;;;;;;;;5060058;28;20025;-78
2022/10/10 06:11:04;;;;;;;7.73;4.20;;;;;;;;;;5059348;28;20044;-78
2022/10/10 06:13:30;;;;;;;8.53;4.00;;;;;;;;;;5059530;28;20146;-77
2022/10/10 06:15:58;;;;;;;5.10;3.50;;;;;;;;;;5059980;28;20036;-77
2022/10/10 06:18:24;;;;;;;8.20;4.43;;;;;;;;;;5049679;28;20098;-79
2022/10/10 06:20:50;;;;;;;7.47;3.83;;;;;;;;;;5055512;28;20516;-77
2022/10/10 06:23:17;;;;;;;8.77;4.40;;;;;;;;;;5057733;28;20025;-77
2022/10/10 06:25:43;;;;;;;6.80;3.20;;;;;;;;;;5055094;28;20025;-78
2022/10/10 06:28:09;;;;;;;5.80;3.87;;;;;;;;;;5053630;28;20137;-78
2022/10/10 06:30:39;;;;;;;8.03;3.47;;;;;;;;;;5053155;28;20116;-78
2022/10/10 06:33:06;;;;;;;6.10;3.10;;;;;;;;;;5054048;28;20446;-78
2022/10/10 06:35:32;;;;;;;5.27;2.93;;;;;;;;;;5052296;28;20138;-78
2022/10/10 06:37:58;;;;;;;5.13;3.03;;;;;;;;;;5052615;28;20075;-77
2022/10/10 06:40:24;;;;;;;7.17;2.90;;;;;;;;;;5068924;28;20082;-78
2022/10/10 06:42:50;;;;;;;4.00;2.87;;;;;;;;;;5061477;28;20029;-78
2022/10/10 06:45:16;;;;;;;8.90;3.30;;;;;;;;;;5062660;28;20433;-78
2022/10/10 06:47:45;;;;;;;6.53;2.93;;;;;;;;;;5056715;28;20460;-78
2022/10/10 06:50:11;;;;;;;8.23;2.97;;;;;;;;;;5063499;28;20028;-78
2022/10/10 06:52:37;;;;;;;5.23;3.33;;;;;;;;;;5059900;28;20361;-77
2022/10/10 06:55:03;;;;;;;5.60;2.90;;;;;;;;;;5056734;28;20385;-78
2022/10/10 06:57:29;;;;;;;7.10;3.20;;;;;;;;;;5056882;28;20437;-78
2022/10/10 06:59:55;;;;;;;8.07;4.10;;;;;;;;;;5056943;28;20042;-78
2022/10/10 07:02:22;;;;;;;7.37;3.63;;;;;;;;;;5057546;28;20105;-78
2022/10/10 07:04:48;;;;;;;6.67;3.47;;;;;;;;;;5042655;28;20087;-78
2022/10/10 07:07:14;;;;;;;5.90;2.70;;;;;;;;;;5056809;28;20024;-78
2022/10/10 07:09:40;;;;;;;6.40;2.90;;;;;;;;;;5052660;28;20044;-78
2022/10/10 07:12:06;;;;;;;6.63;3.07;;;;;;;;;;5057760;28;20020;-78
2022/10/10 07:14:32;;;;;;;8.83;2.90;;;;;;;;;;5056550;28;20432;-78
2022/10/10 07:17:00;;;;;;;6.90;3.20;;;;;;;;;;5056618;28;20043;-78
2022/10/10 07:19:26;;;;;;;8.47;3.60;;;;;;;;;;5056378;28;20115;-78
2022/10/10 07:21:55;;;;;;;4.13;3.07;;;;;;;;;;5050597;28;20616;-78
2022/10/10 07:24:21;;;;;;;6.77;2.73;;;;;;;;;;5050088;28;20103;-78
2022/10/10 07:26:49;;;;;;;10.67;2.80;;;;;;;;;;5061334;28;20393;-78
2022/10/10 07:29:15;;;;;;;7.83;3.07;;;;;;;;;;5064712;28;20082;-78
2022/10/10 07:31:41;;;;;;;6.23;2.80;;;;;;;;;;5056123;28;20032;-77
2022/10/10 07:34:07;;;;;;;6.27;2.73;;;;;;;;;;5057245;28;20350;-78
2022/10/10 07:36:33;;;;;;;4.23;2.70;;;;;;;;;;5050713;28;20037;-77
2022/10/10 07:38:59;;;;;;;6.27;2.77;;;;;;;;;;5044985;28;20029;-78
2022/10/10 07:41:25;;;;;;;4.03;2.83;;;;;;;;;;5043672;28;20048;-77
2022/10/10 07:43:54;;;;;;;6.13;2.40;;;;;;;;;;5045611;28;20125;-78
2022/10/10 07:46:20;;;;;;;9.80;3.33;;;;;;;;;;5043564;28;20082;-77
2022/10/10 07:48:48;;;;;;;6.17;3.10;;;;;;;;;;5044148;28;20029;-77
2022/10/10 07:51:14;;;;;;;5.07;2.53;;;;;;;;;;5043941;28;20044;-77
2022/10/10 07:53:41;;;;;;;7.80;2.90;;;;;;;;;;5044734;28;20057;-77
2022/10/10 07:56:11;;;;;;;5.30;3.57;;;;;;;;;;5046888;28;20039;-77
2022/10/10 07:58:37;;;;;;;4.70;3.03;;;;;;;;;;5044477;28;20032;-77
2022/10/10 08:01:04;;;;;;;5.40;3.03;;;;;;;;;;5045090;28;20055;-77
2022/10/10 08:03:30;;;;;;;7.70;2.97;;;;;;;;;;5047180;28;20028;-77
2022/10/10 08:05:56;;;;;;;8.17;2.77;;;;;;;;;;5044304;28;20017;-77
2022/10/10 08:08:22;;;;;;;4.90;2.73;;;;;;;;;;5043304;28;20120;-78
2022/10/10 08:10:48;;;;;;;9.60;3.20;;;;;;;;;;5044672;28;20056;-76
2022/10/10 08:13:14;;;;;;;7.80;3.13;;;;;;;;;;5042367;28;20029;-77
2022/10/10 08:15:42;;;;;;;13.13;3.27;;;;;;;;;;5045714;28;20060;-77
2022/10/10 08:18:08;;;;;;;8.13;3.53;;;;;;;;;;5047859;28;20073;-78
2022/10/10 08:20:34;;;;;;;12.67;3.20;;;;;;;;;;5058558;28;20051;-78
2022/10/10 08:23:00;;;;;;;4.63;2.67;;;;;;;;;;5043485;28;20025;-76
2022/10/10 08:25:26;;;;;;;8.20;2.83;;;;;;;;;;5047569;28;20036;-78
2022/10/10 08:27:52;;;;;;;6.30;3.03;;;;;;;;;;5044203;28;20037;-77
2022/10/10 08:30:20;;;;;;;8.07;3.40;;;;;;;;;;5046010;28;20033;-77
2022/10/10 08:32:49;;;;;;;7.13;3.93;;;;;;;;;;5045052;28;20108;-79
2022/10/10 08:35:16;;;;;;;9.10;3.60;;;;;;;;;;5046097;28;20052;-76
2022/10/10 08:37:42;;;;;;;5.47;3.53;;;;;;;;;;5044039;28;20037;-76
2022/10/10 08:40:09;;;;;;;10.70;4.63;;;;;;;;;;5045266;28;20056;-77
2022/10/10 08:42:44;;;;;;;6.73;4.10;;;;;;;;;;5048423;28;20285;-77
2022/10/10 08:45:16;;;;;;;9.03;3.40;;;;;;;;;;5042693;28;20021;-77
2022/10/10 08:47:55;;;;;;;8.13;3.30;;;;;;;;;;5046183;28;20112;-76
2022/10/10 08:50:24;;;;;;;5.67;2.77;;;;;;;;;;5044701;28;20028;-77
2022/10/10 08:52:53;;;;;;;4.80;3.00;;;;;;;;;;5046033;28;20025;-77
2022/10/10 08:55:26;;;;;;;6.07;2.83;;;;;;;;;;5042460;28;20083;-77
2022/10/10 08:57:55;;;;;;;7.10;3.33;;;;;;;;;;5043991;28;20041;-77
2022/10/10 09:00:22;;;;;;;3.50;2.40;;;;;;;;;;5043274;28;20053;-78
2022/10/10 09:02:50;;;;;;;5.30;2.60;;;;;;;;;;5042605;28;20171;-77
2022/10/10 09:05:18;;;;;;;6.07;3.13;;;;;;;;;;5040790;28;20037;-78
2022/10/10 09:08:02;;;;;;;6.00;2.73;;;;;;;;;;5043829;28;20381;-78
2022/10/10 09:10:28;;;;;;;6.33;3.00;;;;;;;;;;5042363;28;20167;-77
2022/10/10 09:13:01;;;;;;;6.47;3.13;;;;;;;;;;5043022;28;20067;-77
2022/10/10 09:15:27;;;;;;;6.17;3.10;;;;;;;;;;5040665;28;20040;-78
2022/10/10 09:18:12;;;;;;;5.57;2.77;;;;;;;;;;5041308;28;20033;-77
2022/10/10 09:20:41;;;;;;;8.37;2.50;;;;;;;;;;5041038;28;20051;-77
2022/10/10 09:23:22;;;;;;;4.67;2.70;;;;;;;;;;5041889;28;20119;-78
2022/10/10 09:25:54;;;;;;;6.83;2.83;;;;;;;;;;5042437;28;20464;-76
2022/10/10 09:28:41;;;;;;;8.45;3.65;;;;;;;;;;5042337;28;20029;-77
2022/10/10 09:31:20;;;;;;;13.80;2.80;;;;;;;;;;5041647;28;20037;-77
2022/10/10 09:33:55;;;;;;;5.80;3.20;;;;;;;;;;5056512;28;20028;-77
2022/10/10 09:36:23;;;;;;;9.53;3.40;;;;;;;;;;5047761;28;20057;-78
2022/10/10 09:38:54;;;;;;;6.63;2.97;;;;;;;;;;5053969;28;20025;-78
2022/10/10 09:41:36;;;;;;;5.38;3.17;;;;;;;;;;5049229;28;20100;-78
2022/10/10 09:44:06;;;;;;;8.95;2.70;;;;;;;;;;5061407;28;20032;-80
2022/10/10 09:46:33;;;;;;;10.50;3.20;;;;;;;;;;5058409;28;20444;-79
2022/10/10 09:49:03;;;;;;;5.35;2.55;;;;;;;;;;5054484;28;20036;-77
2022/10/10 09:51:30;;;;;;;5.03;2.58;;;;;;;;;;5053527;28;20077;-78
2022/10/10 09:53:56;;;;;;;4.63;2.70;;;;;;;;;;5053460;28;20044;-78
2022/10/10 09:56:26;;;;;;;6.22;2.28;;;;;;;;;;5049569;28;20025;-78
2022/10/10 09:58:53;;;;;;;5.85;2.33;;;;;;;;;;5050204;28;20453;-79
2022/10/10 10:01:22;;;;;;;5.00;2.20;;;;;;;;;;5058469;28;20017;-78
2022/10/10 10:04:06;;;;;;;5.28;1.67;;;;;;;;;;5056340;28;20033;-78
2022/10/10 10:06:35;;;;;;;8.10;2.15;;;;;;;;;;5042993;28;20049;-78
2022/10/10 10:09:01;;;;;;;4.07;2.47;;;;;;;;;;5054522;28;20113;-79
2022/10/10 10:11:31;;;;;;;4.07;2.42;;;;;;;;;;5049470;28;20120;-78
2022/10/10 10:14:01;;;;;;;9.77;2.92;;;;;;;;;;5050700;28;20075;-77
2022/10/10 10:16:31;;;;;;;6.85;1.98;;;;;;;;;;5059759;28;20036;-79
2022/10/10 10:19:00;;;;;;;5.90;2.40;;;;;;;;;;5057072;28;20028;-78
2022/10/10 10:21:28;;;;;;;4.30;2.72;;;;;;;;;;5052007;28;20029;-79
2022/10/10 10:23:55;;;;;;;3.88;2.47;;;;;;;;;;5063740;28;20037;-79
2022/10/10 10:26:27;;;;;;;4.82;2.55;;;;;;;;;;5055700;28;20111;-77
2022/10/10 10:28:53;;;;;;;7.25;1.85;;;;;;;;;;5055058;28;20446;-78
2022/10/10 10:31:26;;;;;;;3.33;2.00;;;;;;;;;;5052885;28;20090;-79
2022/10/10 10:33:52;;;;;;;12.25;4.53;;;;;;;;;;5057813;28;20021;-79
2022/10/10 10:36:45;;;;;;;5.55;2.22;;;;;;;;;;5054452;28;20025;-77
2022/10/10 10:39:29;;;;;;;4.43;2.17;;;;;;;;;;5037357;28;20037;-78
2022/10/10 10:42:08;;;;;;;5.95;2.33;;;;;;;;;;5055848;28;20021;-78
2022/10/10 10:44:44;;;;;;;3.20;1.92;;;;;;;;;;5056333;28;20449;-79
2022/10/10 10:47:16;;;;;;;6.15;2.40;;;;;;;;;;5056717;28;20021;-78
2022/10/10 10:49:42;;;;;;;5.63;1.90;;;;;;;;;;5059236;28;20032;-78
2022/10/10 10:52:08;;;;;;;4.55;2.20;;;;;;;;;;5056613;28;20024;-79
2022/10/10 10:54:51;;;;;;;4.43;1.48;;;;;;;;;;5052145;28;20102;-78
2022/10/10 10:57:16;;;;;;;;;;;;;;;;;;5052737;28;20387;-78
2022/10/10 10:59:57;;;;;;;3.85;1.77;;;;;;;;;;5057115;28;19962;-78
2022/10/10 11:02:34;;;;;;;3.38;1.73;;;;;;;;;;5051989;28;20086;-78
2022/10/10 11:05:18;;;;;;;4.85;1.88;;;;;;;;;;5055373;28;20060;-78
2022/10/10 11:07:47;;;;;;;7.20;1.52;;;;;;;;;;5056054;28;20116;-78
2022/10/10 11:10:40;;;;;;;5.03;1.50;;;;;;;;;;5056394;28;20162;-77
2022/10/10 11:13:08;;;;;;;7.22;1.60;;;;;;;;;;5011766;28;20448;-79
2022/10/10 11:15:35;;;;;;;6.45;2.05;;;;;;;;;;5089565;28;20054;-77
2022/10/10 11:18:08;;;;;;;5.63;1.85;;;;;;;;;;5061023;28;20033;-78
2022/10/10 11:20:38;;;;;;;3.95;1.67;;;;;;;;;;5057587;28;20103;-78
2022/10/10 11:23:12;;;;;;;6.88;1.75;;;;;;;;;;5057099;28;20553;-78
2022/10/10 11:25:49;;;;;;;7.47;1.65;;;;;;;;;;5056076;28;20021;-78
2022/10/10 11:28:22;;;;;;;5.53;1.65;;;;;;;;;;5055198;28;20029;-78
2022/10/10 11:30:53;;;;;;;4.90;1.40;;;;;;;;;;5056459;28;20029;-79
2022/10/10 11:33:32;;;;;;;10.43;1.65;;;;;;;;;;5059012;28;20048;-78
2022/10/10 11:36:02;;;;;;;4.47;1.50;;;;;;;;;;5072468;28;20109;-78
2022/10/10 11:38:39;;;;;;;5.70;1.23;;;;;;;;;;5059317;28;20025;-78
2022/10/10 11:41:15;;;;;;;3.58;1.42;;;;;;;;;;5056676;28;20024;-78
2022/10/10 11:44:04;;;;;;;6.68;1.40;;;;;;;;;;5059648;28;20510;-77
2022/10/10 11:46:45;;;;;;;5.50;1.35;;;;;;;;;;5063501;28;20021;-78
2022/10/10 11:49:31;;;;;;;8.73;1.95;;;;;;;;;;5047910;28;20024;-77
2022/10/10 11:51:57;;;;;;;10.00;1.77;;;;;;;;;;5055644;28;20626;-78
2022/10/10 11:54:26;;;;;;;8.20;1.40;;;;;;;;;;5055125;28;20039;-78
2022/10/10 11:56:54;;;;;;;9.95;2.20;;;;;;;;;;5047576;28;20036;-78
2022/10/10 11:59:23;;;;;;;4.80;2.00;;;;;;;;;;5088011;28;20445;-77
2022/10/10 12:01:51;;;;;;;8.02;2.03;;;;;;;;;;5056551;28;20017;-76
2022/10/10 12:04:19;;;;;;;8.20;1.85;;;;;;;;;;5054763;28;20122;-77
2022/10/10 12:06:54;;;;;;;3.42;1.38;;;;;;;;;;5056179;28;20017;-78
2022/10/10 12:09:20;;;;;;;5.30;1.35;;;;;;;;;;5056881;28;20346;-77
2022/10/10 12:11:49;;;;;;;4.15;1.30;;;;;;;;;;5047115;28;20029;-77
2022/10/10 12:14:17;;;;;;;11.73;1.98;;;;;;;;;;5050997;28;20453;-78
2022/10/10 12:16:43;;;;;;;5.88;1.80;;;;;;;;;;5051955;28;20030;-77
2022/10/10 12:19:17;;;;;;;7.28;1.40;;;;;;;;;;5053015;28;20106;-77
2022/10/10 12:21:52;;;;;;;5.60;1.38;;;;;;;;;;5054646;28;20029;-78
2022/10/10 12:24:18;;;;;;;6.90;1.73;;;;;;;;;;5063409;28;20024;-77
2022/10/10 12:27:05;;;;;;;6.53;2.17;;;;;;;;;;5055999;28;20021;-77
2022/10/10 12:30:09;;;;;;;7.72;1.67;;;;;;;;;;5055814;28;20104;-78
2022/10/10 12:32:37;;;;;;;7.47;1.80;;;;;;;;;;4958797;28;20034;-77
2022/10/10 12:35:23;;;;;;;5.25;1.65;;;;;;;;;;4975141;28;20027;-76
2022/10/10 12:38:07;;;;;;;9.70;1.90;;;;;;;;;;4986329;28;20042;-78
2022/10/10 12:40:33;;;;;;;7.03;1.77;;;;;;;;;;4977760;28;20035;-77
2022/10/10 12:43:20;;;;;;;6.97;1.63;;;;;;;;;;4960656;28;20046;-76
2022/10/10 12:45:56;;;;;;;7.28;1.77;;;;;;;;;;4976666;28;20038;-76
2022/10/10 12:48:23;;;;;;;3.97;1.63;;;;;;;;;;4975341;28;20432;-76
2022/10/10 12:50:59;;;;;;;6.43;1.83;;;;;;;;;;4975207;28;20039;-76
2022/10/10 12:53:27;;;;;;;7.40;1.88;;;;;;;;;;4958887;28;20464;-77
2022/10/10 12:55:55;;;;;;;8.93;2.00;;;;;;;;;;4973872;28;20097;-78
2022/10/10 12:58:31;;;;;;;9.25;1.42;;;;;;;;;;4974498;28;20030;-77
2022/10/10 13:00:59;;;;;;;5.75;1.80;;;;;;;;;;4988270;28;20027;-77
2022/10/10 13:03:36;;;;;;;6.93;1.63;;;;;;;;;;5027839;28;20068;-77
2022/10/10 13:06:08;;;;;;;9.57;2.25;;;;;;;;;;5060888;28;20155;-77
2022/10/10 13:08:39;;;;;;;8.93;2.08;;;;;;;;;;5062631;28;20068;-78
2022/10/10 13:11:05;;;;;;;7.60;2.10;;;;;;;;;;5052107;28;20033;-78
2022/10/10 13:13:31;;;;;;;6.88;1.98;;;;;;;;;;5053853;28;20032;-77
2022/10/10 13:15:58;;;;;;;8.38;1.98;;;;;;;;;;5050968;28;20048;-77
2022/10/10 13:18:37;;;;;;;6.03;1.90;;;;;;;;;;5051097;28;20064;-77
2022/10/10 13:21:07;;;;;;;8.80;2.15;;;;;;;;;;5050936;28;20465;-77
2022/10/10 13:23:34;;;;;;;6.45;1.80;;;;;;;;;;5046875;28;20028;-76
2022/10/10 13:26:00;;;;;;;8.45;2.22;;;;;;;;;;5055723;28;20041;-77
2022/10/10 13:28:26;;;;;;;13.63;2.67;;;;;;;;;;5065559;28;20029;-77
2022/10/10 13:30:52;;;;;;;9.77;3.00;;;;;;;;;;5047513;28;20031;-76
2022/10/10 13:33:20;;;;;;;12.95;2.10;;;;;;;;;;5057264;28;20031;-77
2022/10/10 13:35:50;;;;;;;12.30;2.15;;;;;;;;;;5058562;28;20082;-77
2022/10/10 13:38:17;;;;;;;11.32;2.05;;;;;;;;;;5040966;28;20068;-77
2022/10/10 13:40:46;;;;;;;10.48;2.40;;;;;;;;;;5038502;28;20033;-77
2022/10/10 13:43:14;;;;;;;12.38;2.10;;;;;;;;;;5037306;28;20025;-76
2022/10/10 13:45:46;;;;;;;9.90;2.50;;;;;;;;;;5037065;28;20963;-78
2022/10/10 13:48:14;;;;;;;;;;;;;;;;;;5039853;28;20029;-76
2022/10/10 13:50:43;;;;;;;9.75;1.90;;;;;;;;;;5053519;28;19999;-77
2022/10/10 13:53:22;;;;;;;8.32;1.95;;;;;;;;;;5037253;28;20033;-78
2022/10/10 13:55:48;;;;;;;7.95;2.45;;;;;;;;;;5040059;28;20064;-78
2022/10/10 13:58:15;;;;;;;7.60;2.38;;;;;;;;;;5041390;28;20033;-77
2022/10/10 14:00:41;;;;;;;11.38;2.22;;;;;;;;;;5040671;28;20024;-77
2022/10/10 14:03:19;;;;;;;9.18;2.22;;;;;;;;;;5035305;28;20594;-77
2022/10/10 14:05:45;;;;;;;14.80;2.55;;;;;;;;;;5036007;28;20025;-76
2022/10/10 14:08:37;;;;;;;10.70;2.42;;;;;;;;;;5036139;28;20021;-77
2022/10/10 14:11:05;;;;;;;11.02;2.70;;;;;;;;;;5025286;28;20065;-77
2022/10/10 14:13:32;;;;;;;13.20;2.97;;;;;;;;;;5036407;28;20021;-76
2022/10/10 14:16:11;;;;;;;9.02;1.58;;;;;;;;;;5036712;28;20530;-76
2022/10/10 14:18:37;;;;;;;10.23;3.05;;;;;;;;;;5039791;28;20037;-77
2022/10/10 14:21:03;;;;;;;6.40;1.88;;;;;;;;;;5036205;28;20345;-78
2022/10/10 14:23:29;;;;;;;9.27;1.55;;;;;;;;;;5038064;28;20334;-77
2022/10/10 14:25:55;;;;;;;7.45;1.83;;;;;;;;;;5037535;28;20749;-76
2022/10/10 14:28:23;;;;;;;14.73;2.63;;;;;;;;;;5038337;28;20029;-76
2022/10/10 14:30:49;;;;;;;9.50;2.08;;;;;;;;;;5038910;28;20087;-77
2022/10/10 14:33:19;;;;;;;11.85;2.00;;;;;;;;;;5036322;28;20412;-77
2022/10/10 14:35:48;;;;;;;11.20;1.75;;;;;;;;;;5038530;28;20029;-78
2022/10/10 14:38:16;;;;;;;12.60;2.15;;;;;;;;;;5039406;28;20043;-76
2022/10/10 14:40:43;;;;;;;9.52;2.53;;;;;;;;;;5041283;28;20029;-78
2022/10/10 14:43:12;;;;;;;7.00;1.83;;;;;;;;;;5040379;28;20036;-76
2022/10/10 14:45:38;;;;;;;9.55;2.45;;;;;;;;;;5036336;28;20108;-78
2022/10/10 14:48:04;;;;;;;10.60;1.80;;;;;;;;;;5044475;28;20095;-77
2022/10/10 14:50:34;;;;;;;5.05;1.88;;;;;;;;;;5041890;28;20071;-78
2022/10/10 14:53:01;;;;;;;12.40;2.63;;;;;;;;;;5036834;28;20033;-77
2022/10/10 14:55:29;;;;;;;9.80;2.15;;;;;;;;;;5040270;28;20041;-76